createdAt,value
2022-08-16T00:01:28.919Z,100204.13
2022-08-16T00:04:02.307Z,100208.47
2022-08-16T00:06:33.638Z,100206.50
2022-08-16T00:09:05.701Z,100205.31
2022-08-16T00:11:34.713Z,100201.16
2022-08-16T00:14:08.739Z,100198.09
2022-08-16T00:17:06.561Z,100201.53
2022-08-16T00:19:41.935Z,100207.03
2022-08-16T00:22:13.768Z,100212.28
2022-08-16T00:24:46.958Z,100210.44
2022-08-16T00:27:18.506Z,100212.94
2022-08-16T00:29:46.716Z,100212.53
2022-08-16T00:32:18.079Z,100210.66
2022-08-16T00:34:52.949Z,100214.16
2022-08-16T00:37:56.980Z,100215.94
2022-08-16T00:40:34.016Z,100212.34
2022-08-16T00:43:19.373Z,100224.97
2022-08-16T00:46:33.930Z,100229.00
2022-08-16T00:49:02.894Z,100230.84
2022-08-16T00:51:32.253Z,100224.84
2022-08-16T00:54:02.399Z,100238.53
2022-08-16T00:56:56.230Z,100233.75
2022-08-16T00:59:30.191Z,100238.75
2022-08-16T01:02:30.953Z,100245.81
2022-08-16T01:05:09.707Z,100239.69
2022-08-16T01:07:51.861Z,100238.50
2022-08-16T01:10:32.002Z,100233.03
2022-08-16T01:13:15.852Z,100240.94
2022-08-16T01:15:54.159Z,100238.16
2022-08-16T01:18:40.099Z,100234.84
2022-08-16T01:22:47.079Z,100245.09
2022-08-16T01:25:02.342Z,100253.88
2022-08-16T01:27:52.722Z,100259.53
2022-08-16T01:30:31.780Z,100251.06
2022-08-16T01:36:21.708Z,100267.84
2022-08-16T01:38:57.157Z,100277.34
2022-08-16T01:41:31.260Z,100275.06
2022-08-16T01:44:02.964Z,100277.19
2022-08-16T01:46:40.832Z,100265.25
2022-08-16T01:49:42.997Z,100262.81
2022-08-16T01:52:29.278Z,100261.31
2022-08-16T01:55:20.873Z,100254.13
2022-08-16T01:57:53.521Z,100254.59
2022-08-16T02:00:29.349Z,100253.44
2022-08-16T02:03:00.180Z,100249.44
2022-08-16T02:05:30.723Z,100252.56
2022-08-16T02:08:01.670Z,100255.16
2022-08-16T02:10:31.255Z,100244.78
2022-08-16T02:13:06.484Z,100247.06
2022-08-16T02:15:42.591Z,100260.38
2022-08-16T02:18:18.776Z,100255.13
2022-08-16T02:20:53.396Z,100259.28
2022-08-16T02:23:23.405Z,100265.31
2022-08-16T02:25:53.838Z,100280.28
2022-08-16T02:28:24.962Z,100280.75
2022-08-16T02:30:58.266Z,100286.00
2022-08-16T02:33:43.785Z,100275.50
2022-08-16T02:36:48.221Z,100280.28
2022-08-16T02:39:14.840Z,100281.88
2022-08-16T02:41:53.047Z,100287.78
2022-08-16T02:44:23.450Z,100285.06
2022-08-16T02:46:56.219Z,100283.47
2022-08-16T02:49:58.694Z,100280.59
2022-08-16T02:52:17.375Z,100285.47
2022-08-16T02:55:03.962Z,100278.69
2022-08-16T02:57:33.505Z,100285.78
2022-08-16T03:00:34.007Z,100282.47
2022-08-16T03:03:03.378Z,100287.31
2022-08-16T03:05:32.505Z,100292.75
2022-08-16T03:08:03.158Z,100292.19
2022-08-16T03:10:37.296Z,100295.63
2022-08-16T03:13:12.673Z,100298.09
2022-08-16T03:15:42.147Z,100306.34
2022-08-16T03:18:12.517Z,100295.75
2022-08-16T03:20:55.496Z,100303.66
2022-08-16T03:23:24.533Z,100304.19
2022-08-16T03:25:53.564Z,100298.31
2022-08-16T03:28:22.086Z,100299.66
2022-08-16T03:30:53.316Z,100298.84
2022-08-16T03:33:24.285Z,100297.13
2022-08-16T03:35:59.385Z,100298.75
2022-08-16T03:38:49.397Z,100291.56
2022-08-16T03:41:25.360Z,100303.44
2022-08-16T03:43:59.191Z,100300.16
2022-08-16T03:46:48.309Z,100302.59
2022-08-16T03:49:37.059Z,100298.69
2022-08-16T03:52:08.306Z,100310.97
2022-08-16T03:54:38.162Z,100308.09
2022-08-16T03:57:15.773Z,100302.19
2022-08-16T03:59:44.841Z,100302.56
2022-08-16T04:02:22.199Z,100303.75
2022-08-16T04:04:54.175Z,100309.66
2022-08-16T04:07:24.784Z,100312.03
2022-08-16T04:09:53.503Z,100311.81
2022-08-16T04:12:53.094Z,100322.75
2022-08-16T04:15:17.255Z,100326.69
2022-08-16T04:18:02.126Z,100320.75
2022-08-16T04:20:33.939Z,100325.03
2022-08-16T04:23:08.532Z,100325.06
2022-08-16T04:25:39.688Z,100321.06
2022-08-16T04:28:51.728Z,100329.47
2022-08-16T04:31:00.778Z,100322.63
2022-08-16T04:33:30.686Z,100331.47
2022-08-16T04:36:04.744Z,100334.59
2022-08-16T04:38:34.822Z,100332.56
2022-08-16T04:41:04.023Z,100337.34
2022-08-16T04:43:38.550Z,100337.00
2022-08-16T04:47:00.210Z,100338.97
2022-08-16T04:49:06.958Z,100334.78
2022-08-16T04:51:36.692Z,100343.41
2022-08-16T04:54:09.074Z,100339.47
2022-08-16T04:56:42.999Z,100344.50
2022-08-16T04:59:15.116Z,100353.63
2022-08-16T05:01:57.622Z,100354.13
2022-08-16T05:04:29.914Z,100361.09
2022-08-16T05:06:58.607Z,100367.84
2022-08-16T05:09:49.308Z,100363.09
2022-08-16T05:12:30.332Z,100362.72
2022-08-16T05:15:02.518Z,100365.81
2022-08-16T05:17:32.749Z,100364.28
2022-08-16T05:20:38.941Z,100356.72
2022-08-16T05:22:57.690Z,100359.47
2022-08-16T05:25:40.796Z,100364.16
2022-08-16T05:28:15.091Z,100363.91
2022-08-16T05:30:51.305Z,100354.81
2022-08-16T05:33:25.875Z,100360.22
2022-08-16T05:35:57.301Z,100364.66
2022-08-16T05:38:38.742Z,100369.06
2022-08-16T05:41:13.868Z,100354.66
2022-08-16T05:43:47.459Z,100367.91
2022-08-16T05:46:31.442Z,100365.44
2022-08-16T05:49:16.258Z,100364.72
2022-08-16T05:51:52.373Z,100364.63
2022-08-16T05:54:25.943Z,100364.72
2022-08-16T05:57:00.030Z,100382.19
2022-08-16T05:59:29.132Z,100364.72
2022-08-16T06:01:58.861Z,100370.94
2022-08-16T06:04:37.484Z,100374.69
2022-08-16T06:07:26.424Z,100367.63
2022-08-16T06:10:08.113Z,100370.38
2022-08-16T06:12:39.644Z,100378.31
2022-08-16T06:15:16.662Z,100373.16
2022-08-16T06:17:46.557Z,100380.44
2022-08-16T06:20:25.454Z,100376.59
2022-08-16T06:23:16.973Z,100387.63
2022-08-16T06:25:58.053Z,100401.56
2022-08-16T06:28:35.883Z,100395.16
2022-08-16T06:31:11.982Z,100400.88
2022-08-16T06:33:44.690Z,100395.91
2022-08-16T06:38:56.929Z,100404.09
2022-08-16T06:41:45.250Z,100408.41
2022-08-16T06:44:31.574Z,100409.97
2022-08-16T06:47:03.776Z,100419.91
2022-08-16T06:49:32.312Z,100420.72
2022-08-16T06:52:02.713Z,100419.38
2022-08-16T06:54:36.222Z,100426.09
2022-08-16T06:57:06.698Z,100423.94
2022-08-16T06:59:52.710Z,100420.31
2022-08-16T07:02:33.033Z,100429.38
2022-08-16T07:05:14.951Z,100434.38
2022-08-16T07:07:50.861Z,100427.31
2022-08-16T07:10:25.719Z,100433.03
2022-08-16T07:13:03.364Z,100431.97
2022-08-16T07:15:34.679Z,100436.53
2022-08-16T07:18:04.308Z,100441.47
2022-08-16T07:20:35.883Z,100439.47
2022-08-16T07:23:17.023Z,100432.44
2022-08-16T07:25:54.324Z,100439.03
2022-08-16T07:28:24.453Z,100439.06
2022-08-16T07:30:55.686Z,100440.91
2022-08-16T07:33:52.244Z,100436.75
2022-08-16T07:36:23.035Z,100431.78
2022-08-16T07:38:53.168Z,100439.28
2022-08-16T07:41:23.099Z,100434.03
2022-08-16T07:43:56.633Z,100437.47
2022-08-16T07:46:38.443Z,100441.88
2022-08-16T07:49:18.481Z,100442.63
2022-08-16T07:51:47.261Z,100446.31
2022-08-16T07:54:20.925Z,100451.69
2022-08-16T07:56:52.361Z,100454.16
2022-08-16T07:59:21.773Z,100449.13
2022-08-16T08:01:53.251Z,100452.84
2022-08-16T08:04:22.735Z,100455.84
2022-08-16T08:06:52.266Z,100454.13
2022-08-16T08:09:20.877Z,100449.84
2022-08-16T08:12:00.671Z,100451.97
2022-08-16T08:14:30.423Z,100451.19
2022-08-16T08:17:01.946Z,100459.50
2022-08-16T08:19:35.803Z,100464.06
2022-08-16T08:22:06.126Z,100464.22
2022-08-16T08:24:53.349Z,100470.53
2022-08-16T08:27:27.868Z,100468.16
2022-08-16T08:30:49.355Z,100475.97
2022-08-16T08:33:00.077Z,100469.72
2022-08-16T08:35:32.436Z,100475.06
2022-08-16T08:38:03.555Z,100479.34
2022-08-16T08:40:35.917Z,100483.25
2022-08-16T08:43:12.555Z,100478.53
2022-08-16T08:45:57.836Z,100481.06
2022-08-16T08:48:34.899Z,100479.53
2022-08-16T08:51:13.597Z,100480.09
2022-08-16T08:53:57.822Z,100476.28
2022-08-16T08:56:34.916Z,100481.78
2022-08-16T08:59:24.953Z,100489.69
2022-08-16T09:01:57.750Z,100485.56
2022-08-16T09:04:34.334Z,100484.50
2022-08-16T09:07:05.117Z,100492.38
2022-08-16T09:09:41.042Z,100490.84
2022-08-16T09:12:35.399Z,100496.38
2022-08-16T09:15:08.804Z,100494.25
2022-08-16T09:17:55.292Z,100490.69
2022-08-16T09:20:29.381Z,100485.56
2022-08-16T09:22:59.574Z,100484.69
2022-08-16T09:25:34.457Z,100482.00
2022-08-16T09:28:10.505Z,100489.81
2022-08-16T09:30:56.017Z,100485.16
2022-08-16T09:33:24.218Z,100484.66
2022-08-16T09:35:53.018Z,100485.84
2022-08-16T09:38:32.545Z,100484.66
2022-08-16T09:41:06.124Z,100483.41
2022-08-16T09:44:00.251Z,100482.91
2022-08-16T09:46:48.053Z,100476.91
2022-08-16T09:49:19.909Z,100483.72
2022-08-16T09:51:55.592Z,100478.25
2022-08-16T09:54:32.579Z,100473.09
2022-08-16T09:57:02.964Z,100479.63
2022-08-16T09:59:38.681Z,100472.38
2022-08-16T10:02:25.945Z,100472.66
2022-08-16T10:04:58.069Z,100481.53
2022-08-16T10:07:44.637Z,100480.28
2022-08-16T10:10:18.937Z,100477.16
2022-08-16T10:13:12.226Z,100481.28
2022-08-16T10:15:54.840Z,100483.75
2022-08-16T10:19:00.610Z,100480.69
2022-08-16T10:21:13.961Z,100483.72
2022-08-16T10:23:44.810Z,100477.75
2022-08-16T10:27:17.073Z,100480.50
2022-08-16T10:29:04.836Z,100479.06
2022-08-16T10:31:46.038Z,100490.06
2022-08-16T10:34:31.499Z,100480.31
2022-08-16T10:37:04.043Z,100477.03
2022-08-16T10:39:40.914Z,100481.44
2022-08-16T10:42:13.353Z,100478.41
2022-08-16T10:44:46.618Z,100475.81
2022-08-16T10:47:22.632Z,100472.59
2022-08-16T10:49:51.905Z,100469.25
2022-08-16T10:52:20.345Z,100474.03
2022-08-16T10:57:37.848Z,100473.47
2022-08-16T11:00:22.515Z,100457.66
2022-08-16T11:02:59.863Z,100469.25
2022-08-16T11:08:35.173Z,100468.06
2022-08-16T11:11:12.993Z,100470.31
2022-08-16T11:14:11.394Z,100475.09
2022-08-16T11:19:26.340Z,100480.91
2022-08-16T11:22:38.509Z,100472.91
2022-08-16T11:24:46.391Z,100472.25
2022-08-16T11:27:36.033Z,100484.06
2022-08-16T11:30:09.266Z,100477.00
2022-08-16T11:32:44.424Z,100474.56
2022-08-16T11:38:46.540Z,100477.50
2022-08-16T11:41:03.523Z,100480.97
2022-08-16T11:43:37.050Z,100469.81
2022-08-16T11:46:44.973Z,100476.16
2022-08-16T11:49:01.100Z,100489.16
2022-08-16T11:51:29.462Z,100482.72
2022-08-16T11:53:58.474Z,100478.66
2022-08-16T11:56:51.760Z,100478.22
2022-08-16T11:59:14.903Z,100477.00
2022-08-16T12:01:59.416Z,100472.66
2022-08-16T12:04:28.480Z,100476.94
2022-08-16T12:06:57.446Z,100469.22
2022-08-16T12:09:29.479Z,100474.72
2022-08-16T12:12:02.912Z,100470.22
2022-08-16T12:14:37.683Z,100480.50
2022-08-16T12:17:08.131Z,100473.28
2022-08-16T12:19:38.048Z,100469.47
2022-08-16T12:22:19.819Z,100468.25
2022-08-16T12:24:52.110Z,100471.38
2022-08-16T12:27:24.663Z,100472.06
2022-08-16T12:29:54.533Z,100485.19
2022-08-16T12:32:53.108Z,100470.22
2022-08-16T12:35:37.311Z,100478.47
2022-08-16T12:38:38.644Z,100471.50
2022-08-16T12:41:04.367Z,100472.16
2022-08-16T12:43:36.541Z,100470.41
2022-08-16T12:46:12.765Z,100463.69
2022-08-16T12:48:59.511Z,100460.06
2022-08-16T12:51:58.731Z,100461.34
2022-08-16T12:54:27.597Z,100457.25
2022-08-16T12:56:56.308Z,100456.34
2022-08-16T12:59:24.519Z,100458.69
2022-08-16T13:02:00.750Z,100464.09
2022-08-16T13:04:33.506Z,100463.16
2022-08-16T13:07:04.631Z,100459.72
2022-08-16T13:09:47.010Z,100464.06
2022-08-16T13:12:25.100Z,100462.13
2022-08-16T13:14:56.070Z,100466.53
2022-08-16T13:17:29.675Z,100460.28
2022-08-16T13:20:08.919Z,100460.09
2022-08-16T13:22:44.600Z,100457.84
2022-08-16T13:25:21.227Z,100455.75
2022-08-16T13:28:03.101Z,100458.50
2022-08-16T13:30:41.683Z,100459.22
2022-08-16T13:33:26.132Z,100455.22
2022-08-16T13:36:01.325Z,100454.09
2022-08-16T13:38:37.643Z,100451.13
2022-08-16T13:41:10.748Z,100455.25
2022-08-16T13:43:42.094Z,100454.63
2022-08-16T13:46:10.924Z,100457.03
2022-08-16T13:48:44.023Z,100453.72
2022-08-16T13:51:18.190Z,100450.81
2022-08-16T13:54:02.929Z,100452.56
2022-08-16T13:56:38.818Z,100443.81
2022-08-16T13:59:19.862Z,100449.38
2022-08-16T14:01:59.832Z,100442.66
2022-08-16T14:04:36.524Z,100438.66
2022-08-16T14:07:10.830Z,100443.78
2022-08-16T14:09:40.337Z,100440.59
2022-08-16T14:12:24.476Z,100448.97
2022-08-16T14:14:56.401Z,100449.91
2022-08-16T14:17:28.499Z,100441.91
2022-08-16T14:19:59.957Z,100448.22
2022-08-16T14:22:35.869Z,100452.28
2022-08-16T14:25:24.863Z,100445.53
2022-08-16T14:27:55.176Z,100453.25
2022-08-16T14:30:25.269Z,100442.78
2022-08-16T14:32:54.292Z,100451.69
2022-08-16T14:35:36.844Z,100447.75
2022-08-16T14:38:18.697Z,100447.88
2022-08-16T14:40:52.764Z,100446.06
2022-08-16T14:43:25.451Z,100456.00
2022-08-16T14:45:55.598Z,100451.53
2022-08-16T14:48:26.345Z,100455.72
2022-08-16T14:50:55.583Z,100452.28
2022-08-16T14:53:26.908Z,100445.47
2022-08-16T14:55:55.428Z,100448.34
2022-08-16T14:58:34.674Z,100444.91
2022-08-16T15:01:06.593Z,100451.03
2022-08-16T15:03:42.363Z,100449.41
2022-08-16T15:06:14.573Z,100444.91
2022-08-16T15:08:45.227Z,100449.38
2022-08-16T15:11:14.283Z,100445.09
2022-08-16T15:13:42.659Z,100452.31
2022-08-16T15:16:10.840Z,100451.94
2022-08-16T15:18:39.393Z,100445.34
2022-08-16T15:21:08.708Z,100449.44
2022-08-16T15:23:40.478Z,100443.72
2022-08-16T15:26:10.834Z,100444.75
2022-08-16T15:28:47.414Z,100448.28
2022-08-16T15:31:16.252Z,100447.09
2022-08-16T15:33:51.051Z,100444.16
2022-08-16T15:36:25.764Z,100441.94
2022-08-16T15:39:07.766Z,100447.22
2022-08-16T15:41:47.768Z,100438.78
2022-08-16T15:44:22.553Z,100445.06
2022-08-16T15:46:59.854Z,100443.84
2022-08-16T15:49:34.687Z,100443.06
2022-08-16T15:52:37.724Z,100447.03
2022-08-16T15:55:13.115Z,100451.91
2022-08-16T15:57:52.684Z,100443.06
2022-08-16T16:00:21.411Z,100444.38
2022-08-16T16:02:49.956Z,100453.31
2022-08-16T16:05:19.633Z,100450.28
2022-08-16T16:07:55.615Z,100460.84
2022-08-16T16:10:29.386Z,100460.56
2022-08-16T16:13:04.812Z,100465.13
2022-08-16T16:15:40.471Z,100452.53
2022-08-16T16:18:09.874Z,100454.44
2022-08-16T16:20:51.926Z,100459.50
2022-08-16T16:23:26.816Z,100457.81
2022-08-16T16:26:00.260Z,100450.56
2022-08-16T16:29:05.273Z,100459.78
2022-08-16T16:31:23.952Z,100460.09
2022-08-16T16:33:55.985Z,100463.75
2022-08-16T16:36:28.715Z,100465.03
2022-08-16T16:39:00.085Z,100475.66
2022-08-16T16:41:30.579Z,100474.47
2022-08-16T16:44:01.275Z,100471.13
2022-08-16T16:46:42.828Z,100467.22
2022-08-16T16:49:14.173Z,100476.88
2022-08-16T16:51:47.224Z,100471.88
2022-08-16T16:54:27.753Z,100475.44
2022-08-16T16:56:58.345Z,100481.47
2022-08-16T16:59:27.937Z,100481.72
2022-08-16T17:02:38.836Z,100486.00
2022-08-16T17:04:48.817Z,100488.19
2022-08-16T17:07:24.018Z,100495.00
2022-08-16T17:09:53.970Z,100492.44
2022-08-16T17:12:24.556Z,100494.69
2022-08-16T17:15:10.952Z,100498.78
2022-08-16T17:18:00.030Z,100495.94
2022-08-16T17:20:28.400Z,100498.13
2022-08-16T17:22:57.108Z,100493.50
2022-08-16T17:25:36.219Z,100496.50
2022-08-16T17:28:57.716Z,100502.44
2022-08-16T17:30:56.122Z,100495.84
2022-08-16T17:33:25.033Z,100503.34
2022-08-16T17:35:55.512Z,100508.97
2022-08-16T17:38:33.039Z,100511.91
2022-08-16T17:41:13.411Z,100502.72
2022-08-16T17:43:44.812Z,100505.25
2022-08-16T17:46:51.314Z,100508.28
2022-08-16T17:49:05.100Z,100507.34
2022-08-16T17:51:34.311Z,100509.94
2022-08-16T17:54:03.649Z,100515.31
2022-08-16T17:56:32.407Z,100511.06
2022-08-16T17:59:01.974Z,100516.41
2022-08-16T18:01:31.040Z,100511.41
2022-08-16T18:04:06.614Z,100511.38
2022-08-16T18:06:37.755Z,100513.25
2022-08-16T18:09:08.047Z,100510.16
2022-08-16T18:11:43.032Z,100519.84
2022-08-16T18:14:15.940Z,100522.03
2022-08-16T18:16:45.608Z,100516.72
2022-08-16T18:19:14.812Z,100526.56
2022-08-16T18:22:02.053Z,100522.22
2022-08-16T18:24:31.031Z,100522.97
2022-08-16T18:27:21.890Z,100524.31
2022-08-16T18:29:52.110Z,100528.91
2022-08-16T18:32:22.084Z,100534.38
2022-08-16T18:34:54.837Z,100530.63
2022-08-16T18:37:24.504Z,100533.59
2022-08-16T18:39:52.778Z,100536.44
2022-08-16T18:42:21.084Z,100541.75
2022-08-16T18:44:49.306Z,100543.50
2022-08-16T18:47:17.576Z,100545.00
2022-08-16T18:49:45.825Z,100553.34
2022-08-16T18:52:25.736Z,100550.94
2022-08-16T18:55:01.839Z,100550.94
2022-08-16T18:57:31.546Z,100551.56
2022-08-16T18:59:59.776Z,100549.72
2022-08-16T19:02:43.105Z,100564.59
2022-08-16T19:05:29.323Z,100561.09
2022-08-16T19:07:58.536Z,100567.84
2022-08-16T19:10:26.763Z,100575.66
2022-08-16T19:12:55.057Z,100579.19
2022-08-16T19:15:28.994Z,100577.53
2022-08-16T19:17:57.887Z,100576.88
2022-08-16T19:20:28.998Z,100585.72
2022-08-16T19:23:05.332Z,100585.75
2022-08-16T19:25:47.039Z,100586.38
2022-08-16T19:28:57.814Z,100587.19
2022-08-16T19:31:27.889Z,100581.09
2022-08-16T19:33:57.931Z,100586.81
2022-08-16T19:36:36.014Z,100592.50
2022-08-16T19:39:13.824Z,100601.47
2022-08-16T19:41:53.753Z,100603.41
2022-08-16T19:44:23.457Z,100596.47
2022-08-16T19:46:51.671Z,100603.97
2022-08-16T19:49:19.853Z,100602.81
2022-08-16T19:51:48.669Z,100610.94
2022-08-16T19:54:17.580Z,100605.22
2022-08-16T19:56:45.814Z,100597.44
2022-08-16T19:59:19.818Z,100596.38
2022-08-16T20:01:52.224Z,100605.75
2022-08-16T20:04:22.421Z,100611.53
2022-08-16T20:06:54.533Z,100603.44
2022-08-16T20:09:24.540Z,100608.03
2022-08-16T20:11:54.479Z,100607.72
2022-08-16T20:14:25.349Z,100611.34
2022-08-16T20:16:57.108Z,100608.53
2022-08-16T20:19:32.533Z,100607.72
2022-08-16T20:22:30.015Z,100610.59
2022-08-16T20:25:08.055Z,100606.75
2022-08-16T20:27:36.242Z,100617.06
2022-08-16T20:30:07.024Z,100619.63
2022-08-16T20:32:36.611Z,100623.09
2022-08-16T20:35:07.642Z,100627.47
2022-08-16T20:37:37.397Z,100627.81
2022-08-16T20:40:33.321Z,100620.59
2022-08-16T20:43:12.350Z,100620.06
2022-08-16T20:45:45.681Z,100624.13
2022-08-16T20:48:15.105Z,100627.66
2022-08-16T20:50:43.936Z,100624.25
2022-08-16T20:53:12.289Z,100627.75
2022-08-16T20:55:41.795Z,100633.16
2022-08-16T20:58:10.240Z,100633.16
2022-08-16T21:00:38.495Z,100634.09
2022-08-16T21:03:13.121Z,100629.00
2022-08-16T21:05:41.476Z,100628.25
2022-08-16T21:08:46.552Z,100622.31
2022-08-16T21:10:59.488Z,100626.31
2022-08-16T21:13:30.802Z,100622.66
2022-08-16T21:16:01.210Z,100621.91
2022-08-16T21:18:29.551Z,100618.53
2022-08-16T21:20:57.729Z,100614.03
2022-08-16T21:23:26.248Z,100618.66
2022-08-16T21:25:58.736Z,100617.44
2022-08-16T21:28:39.458Z,100618.72
2022-08-16T21:31:17.743Z,100618.03
2022-08-16T21:33:55.139Z,100613.75
2022-08-16T21:36:34.831Z,100621.66
2022-08-16T21:39:07.899Z,100622.78
2022-08-16T21:41:38.779Z,100624.72
2022-08-16T21:44:21.437Z,100619.00
2022-08-16T21:46:57.259Z,100621.69
2022-08-16T21:49:26.709Z,100626.44
2022-08-16T21:51:59.482Z,100620.38
2022-08-16T21:54:31.339Z,100621.53
2022-08-16T21:57:07.440Z,100627.66
2022-08-16T21:59:39.988Z,100629.63
2022-08-16T22:02:23.188Z,100626.34
2022-08-16T22:04:52.812Z,100624.75
2022-08-16T22:07:23.592Z,100630.31
2022-08-16T22:09:56.543Z,100636.28
2022-08-16T22:12:28.303Z,100627.25
2022-08-16T22:15:04.259Z,100633.97
2022-08-16T22:17:34.687Z,100644.53
2022-08-16T22:20:14.636Z,100646.00
2022-08-16T22:22:50.057Z,100645.53
2022-08-16T22:25:22.169Z,100650.00
2022-08-16T22:27:54.415Z,100656.06
2022-08-16T22:30:35.185Z,100649.66
2022-08-16T22:33:33.573Z,100645.16
2022-08-16T22:36:05.427Z,100653.56
2022-08-16T22:38:55.715Z,100659.50
2022-08-16T22:41:32.311Z,100662.81
2022-08-16T22:44:06.598Z,100655.63
2022-08-16T22:46:39.911Z,100659.09
2022-08-16T22:49:15.977Z,100659.09
2022-08-16T22:51:54.759Z,100662.00
2022-08-16T22:54:41.348Z,100666.59
2022-08-16T22:57:18.972Z,100666.06
2022-08-16T22:59:56.106Z,100659.84
2022-08-16T23:02:33.572Z,100662.19
2022-08-16T23:05:10.722Z,100666.53
2022-08-16T23:07:43.207Z,100663.47
2022-08-16T23:10:21.644Z,100659.94
2022-08-16T23:13:04.024Z,100662.66
2022-08-16T23:15:53.657Z,100660.19
2022-08-16T23:18:36.832Z,100659.88
2022-08-16T23:21:15.647Z,100669.94
2022-08-16T23:26:57.362Z,100655.06
2022-08-16T23:29:26.913Z,100654.38
2022-08-16T23:32:19.305Z,100657.47
2022-08-16T23:34:53.144Z,100653.09
2022-08-16T23:37:31.855Z,100647.13
2022-08-16T23:40:15.843Z,100646.38
2022-08-16T23:43:04.253Z,100644.16
2022-08-16T23:45:42.238Z,100642.97
2022-08-16T23:51:17.293Z,100639.66
2022-08-16T23:53:52.342Z,100635.25
2022-08-16T23:56:23.880Z,100637.25
2022-08-16T23:58:55.983Z,100641.84
